Time;durP1;ratioP1;P1;durP2;ratioP2;P2;SDS_P1;SDS_P2;PMS_P1;PMS_P2;Temp;Humidity;BMP_temperature;BMP_pressure;BME280_temperature;BME280_humidity;BME280_pressure;Samples;Min_cycle;Max_cycle;Signal;HPM_P1;HPM_P2
2022/12/10 00:01:10;;;;;;;33.03;17.00;;;0.10;1.00;;;;;;5043193;28;20205;-56
2022/12/10 00:03:38;;;;;;;36.97;16.47;;;0.10;1.00;;;;;;5044736;28;20195;-56
2022/12/10 00:06:07;;;;;;;37.20;17.03;;;0.20;1.00;;;;;;5024961;28;20293;-56
2022/12/10 00:08:35;;;;;;;37.57;16.20;;;0.20;1.00;;;;;;5040202;28;20193;-56
2022/12/10 00:11:07;;;;;;;36.10;15.30;;;0.30;99.90;;;;;;5040252;28;20231;-55
2022/12/10 00:13:35;;;;;;;30.83;16.77;;;0.20;1.00;;;;;;5040943;28;20290;-56
2022/12/10 00:16:04;;;;;;;38.90;17.17;;;0.00;1.00;;;;;;5042143;28;20196;-63
2022/12/10 00:18:31;;;;;;;33.67;15.57;;;-0.20;99.90;;;;;;5040205;28;20683;-55
2022/12/10 00:20:58;;;;;;;40.27;18.20;;;-0.30;1.00;;;;;;5024158;28;20192;-56
2022/12/10 00:23:24;;;;;;;35.83;17.40;;;-0.20;1.00;;;;;;5037502;28;20302;-55
2022/12/10 00:25:51;;;;;;;33.23;16.37;;;-0.20;1.00;;;;;;5037231;28;20193;-58
2022/12/10 00:28:18;;;;;;;38.97;17.80;;;-0.20;1.00;;;;;;5038070;28;20208;-58
2022/12/10 00:30:45;;;;;;;37.80;17.73;;;-0.30;1.00;;;;;;5040391;28;20657;-55
2022/12/10 00:33:11;;;;;;;38.53;17.70;;;-0.50;1.00;;;;;;5037468;28;20235;-60
2022/12/10 00:35:38;;;;;;;36.60;16.23;;;-0.40;1.00;;;;;;5035879;28;20336;-55
2022/12/10 00:38:05;;;;;;;34.47;17.23;;;-0.20;99.90;;;;;;5037443;28;20255;-60
2022/12/10 00:40:32;;;;;;;37.40;18.33;;;-0.30;90.60;;;;;;5037577;28;20200;-56
2022/12/10 00:42:59;;;;;;;36.30;17.67;;;-0.40;99.90;;;;;;5037043;28;20788;-56
2022/12/10 00:45:26;;;;;;;43.60;18.20;;;-0.60;99.90;;;;;;5039499;28;20656;-56
2022/12/10 00:47:53;;;;;;;37.67;17.03;;;-0.70;1.00;;;;;;5039447;28;20657;-56
2022/12/10 00:50:20;;;;;;;35.43;16.77;;;-0.40;99.90;;;;;;5038041;28;20678;-55
2022/12/10 00:52:46;;;;;;;32.40;17.13;;;-0.20;1.00;;;;;;5039203;28;20217;-54
2022/12/10 00:55:13;;;;;;;36.47;17.57;;;-0.10;1.00;;;;;;5039170;28;20704;-58
2022/12/10 00:57:40;;;;;;;36.27;18.70;;;-0.10;99.90;;;;;;5039525;28;20296;-56
2022/12/10 01:00:07;;;;;;;36.60;17.67;;;0.00;1.00;;;;;;5024675;28;20212;-56
2022/12/10 01:02:34;;;;;;;36.40;17.40;;;-0.10;1.00;;;;;;5008533;28;20260;-56
2022/12/10 01:05:01;;;;;;;35.27;17.73;;;-0.10;1.00;;;;;;5037985;28;20236;-55
2022/12/10 01:07:28;;;;;;;34.77;17.57;;;-0.10;1.00;;;;;;5034338;28;20632;-54
2022/12/10 01:09:55;;;;;;;34.47;18.53;;;-0.10;1.00;;;;;;5037450;28;20227;-56
2022/12/10 01:12:22;;;;;;;35.33;16.93;;;-0.10;1.00;;;;;;5040439;28;20219;-56
2022/12/10 01:14:48;;;;;;;33.37;16.60;;;-0.40;1.00;;;;;;5040104;28;20286;-57
2022/12/10 01:17:15;;;;;;;35.57;17.93;;;-0.60;1.00;;;;;;5043526;28;20287;-55
2022/12/10 01:19:42;;;;;;;34.97;18.17;;;-0.60;1.00;;;;;;5050497;28;20755;-56
2022/12/10 01:22:09;;;;;;;39.27;17.47;;;-0.50;23.70;;;;;;5040219;28;20576;-56
2022/12/10 01:24:36;;;;;;;35.73;15.83;;;-0.20;1.00;;;;;;5042543;28;20287;-56
2022/12/10 01:27:03;;;;;;;39.97;18.23;;;-0.40;99.90;;;;;;5040328;28;20557;-55
2022/12/10 01:29:30;;;;;;;40.47;17.23;;;-0.60;1.00;;;;;;5040035;28;20205;-56
2022/12/10 01:31:58;;;;;;;36.57;18.33;;;-0.80;99.90;;;;;;5038765;28;20303;-56
2022/12/10 01:34:25;;;;;;;42.27;19.03;;;-0.80;1.00;;;;;;5039844;28;20516;-54
2022/12/10 01:36:53;;;;;;;35.33;18.43;;;-0.50;99.90;;;;;;5038664;28;20299;-55
2022/12/10 01:39:21;;;;;;;40.20;18.67;;;-0.30;48.20;;;;;;5036520;28;20233;-56
2022/12/10 01:41:58;;;;;;;35.20;18.23;;;-0.50;1.00;;;;;;5036966;28;20200;-55
2022/12/10 01:44:25;;;;;;;38.20;17.60;;;-0.70;1.00;;;;;;5036398;28;20204;-56
2022/12/10 01:46:54;;;;;;;34.27;17.57;;;-0.90;99.90;;;;;;5038729;28;20287;-56
2022/12/10 01:49:34;;;;;;;36.93;17.90;;;-0.90;99.90;;;;;;5037309;28;20552;-55
2022/12/10 01:52:01;;;;;;;38.50;16.47;;;-0.50;1.00;;;;;;5035948;28;20251;-56
2022/12/10 01:54:31;;;;;;;37.07;18.07;;;-0.40;1.00;;;;;;5021386;28;20215;-57
2022/12/10 01:57:09;;;;;;;39.97;17.30;;;-0.50;1.00;;;;;;5036772;28;20201;-56
2022/12/10 01:59:38;;;;;;;35.73;17.97;;;-0.70;1.00;;;;;;5036665;28;20201;-56
2022/12/10 02:02:20;;;;;;;39.80;17.60;;;-0.70;1.00;;;;;;5037714;28;20674;-56
2022/12/10 02:05:24;;;;;;;34.30;17.57;;;-0.60;1.00;;;;;;5030540;28;20221;-56
2022/12/10 02:08:00;;;;;;;33.53;16.03;;;-0.20;1.00;;;;;;5025486;28;20203;-56
2022/12/10 02:10:58;;;;;;;34.17;16.60;;;-0.30;1.00;;;;;;5033143;28;20255;-56
2022/12/10 02:13:43;;;;;;;39.70;18.13;;;-0.50;1.00;;;;;;5036491;28;20538;-57
2022/12/10 02:16:18;;;;;;;31.80;18.57;;;-0.70;99.90;;;;;;5038855;28;20198;-56
2022/12/10 02:19:08;;;;;;;39.23;18.00;;;-0.80;1.00;;;;;;5018794;28;20267;-56
2022/12/10 02:21:39;;;;;;;38.53;17.40;;;-0.80;1.00;;;;;;5036543;28;20208;-55
2022/12/10 02:24:13;;;;;;;38.40;16.27;;;-1.00;1.00;;;;;;5038032;28;20242;-56
2022/12/10 02:27:03;;;;;;;39.37;17.67;;;-0.90;1.00;;;;;;5033349;28;20199;-55
2022/12/10 02:29:32;;;;;;;42.23;18.33;;;-0.90;99.90;;;;;;5033833;28;20288;-54
2022/12/10 02:32:09;;;;;;;39.37;17.60;;;-0.50;99.90;;;;;;5035122;28;20216;-56
2022/12/10 02:34:42;;;;;;;37.47;18.83;;;-0.40;1.00;;;;;;5018667;28;20232;-54
2022/12/10 02:37:23;;;;;;;36.00;18.37;;;-0.70;1.00;;;;;;5035868;28;21217;-57
2022/12/10 02:39:54;;;;;;;32.33;16.70;;;-0.90;1.00;;;;;;5035778;28;20301;-57
2022/12/10 02:42:24;;;;;;;33.07;17.50;;;-0.90;6.10;;;;;;5033845;28;20331;-56
2022/12/10 02:44:53;;;;;;;37.30;17.27;;;-0.70;99.90;;;;;;5035164;28;20303;-55
2022/12/10 02:47:20;;;;;;;32.37;16.83;;;-0.70;17.20;;;;;;5023497;28;20207;-57
2022/12/10 02:49:52;;;;;;;36.93;17.53;;;-0.80;1.00;;;;;;5033394;28;20212;-56
2022/12/10 02:52:20;;;;;;;33.23;17.63;;;-1.00;1.00;;;;;;5018044;28;20660;-55
2022/12/10 02:54:49;;;;;;;37.77;16.70;;;-1.10;99.90;;;;;;5035940;28;20235;-56
2022/12/10 02:57:21;;;;;;;35.47;18.47;;;-1.10;1.00;;;;;;5033519;28;20223;-55
2022/12/10 03:00:12;;;;;;;38.27;18.10;;;-1.00;99.90;;;;;;5037744;28;20201;-56
2022/12/10 03:03:09;;;;;;;35.00;18.13;;;-1.20;99.90;;;;;;5039111;28;20202;-57
2022/12/10 03:05:39;;;;;;;40.00;18.10;;;-1.10;1.00;;;;;;5036165;28;20203;-56
2022/12/10 03:08:19;;;;;;;38.50;17.47;;;-1.20;1.00;;;;;;5021396;28;20211;-56
2022/12/10 03:10:59;;;;;;;39.47;17.53;;;-1.20;1.00;;;;;;5021010;28;20715;-57
2022/12/10 03:13:36;;;;;;;40.50;16.80;;;-1.20;99.90;;;;;;5037573;28;20258;-57
2022/12/10 03:16:04;;;;;;;42.90;19.80;;;-1.10;1.00;;;;;;5032206;28;20683;-57
2022/12/10 03:18:34;;;;;;;39.87;19.57;;;-1.10;1.00;;;;;;5036612;28;20211;-55
2022/12/10 03:21:05;;;;;;;42.63;17.53;;;-1.00;1.00;;;;;;5034389;28;20211;-54
2022/12/10 03:23:36;;;;;;;40.63;18.87;;;-1.10;1.00;;;;;;5037723;28;20301;-56
2022/12/10 03:26:03;;;;;;;45.47;19.47;;;-1.10;1.00;;;;;;5037875;28;20231;-55
2022/12/10 03:28:38;;;;;;;45.60;19.60;;;-1.00;99.90;;;;;;5034451;28;20414;-56
2022/12/10 03:31:08;;;;;;;42.10;19.33;;;-1.10;1.00;;;;;;5036223;28;20682;-55
2022/12/10 03:33:35;;;;;;;38.00;17.10;;;-1.10;1.00;;;;;;5037832;28;20215;-55
2022/12/10 03:36:04;;;;;;;50.47;19.07;;;-1.10;1.00;;;;;;5033250;28;20205;-56
2022/12/10 03:38:31;;;;;;;53.93;21.87;;;-1.10;1.00;;;;;;5037449;28;20332;-57
2022/12/10 03:40:58;;;;;;;42.07;18.97;;;-1.20;40.10;;;;;;5033769;28;21189;-56
2022/12/10 03:43:25;;;;;;;49.53;19.93;;;-1.10;99.90;;;;;;5038332;28;20204;-56
2022/12/10 03:45:51;;;;;;;47.57;20.17;;;-1.20;99.90;;;;;;5036367;28;20581;-55
2022/12/10 03:48:18;;;;;;;51.20;20.83;;;-1.10;99.90;;;;;;5036993;28;20201;-56
2022/12/10 03:50:45;;;;;;;45.13;20.17;;;-1.10;99.90;;;;;;5036629;28;20576;-55
2022/12/10 03:53:12;;;;;;;49.43;20.10;;;-1.00;99.90;;;;;;5038159;28;20215;-55
2022/12/10 03:55:39;;;;;;;49.37;21.57;;;-1.10;99.90;;;;;;5034560;28;20310;-56
2022/12/10 03:58:06;;;;;;;54.87;21.67;;;-1.10;99.90;;;;;;5035239;28;20528;-56
2022/12/10 04:00:33;;;;;;;47.00;21.33;;;-1.10;99.90;;;;;;5037138;28;20291;-56
2022/12/10 04:03:00;;;;;;;50.27;21.13;;;-1.10;99.90;;;;;;5036584;28;20668;-56
2022/12/10 04:05:26;;;;;;;49.27;21.27;;;-1.10;99.90;;;;;;5036411;28;20219;-56
2022/12/10 04:07:53;;;;;;;57.40;23.93;;;-1.20;99.90;;;;;;5031149;28;20664;-56
2022/12/10 04:10:20;;;;;;;58.10;23.57;;;-1.20;99.90;;;;;;5035009;28;20220;-55
2022/12/10 04:16:26;;;;;;;52.00;21.57;;;-1.20;99.90;;;;;;5035160;28;20233;-56
2022/12/10 04:18:22;;;;;;;60.57;23.60;;;-1.10;99.90;;;;;;5037015;28;20229;-57
2022/12/10 04:29:07;;;;;;;65.07;23.83;;;-1.10;99.90;;;;;;5051400;28;20326;-54
2022/12/10 04:31:34;;;;;;;51.43;20.63;;;-1.30;99.90;;;;;;5039430;28;20652;-57
2022/12/10 04:34:01;;;;;;;64.93;23.07;;;-1.30;99.90;;;;;;5025539;28;20212;-56
2022/12/10 04:36:27;;;;;;;67.87;25.07;;;-1.40;99.90;;;;;;5023802;28;20230;-55
2022/12/10 04:38:54;;;;;;;66.27;24.67;;;-1.30;99.90;;;;;;5024312;28;20236;-56
2022/12/10 04:41:21;;;;;;;72.83;24.10;;;-1.20;99.90;;;;;;5042146;28;20678;-56
2022/12/10 04:43:48;;;;;;;72.67;27.00;;;-1.30;99.90;;;;;;5042431;28;20697;-56
2022/12/10 04:46:14;;;;;;;73.63;24.73;;;-1.30;99.90;;;;;;5040523;28;20226;-56
2022/12/10 04:48:41;;;;;;;70.30;24.70;;;-1.40;99.90;;;;;;5024123;28;20204;-56
2022/12/10 04:51:08;;;;;;;69.10;24.93;;;-1.40;99.90;;;;;;5040940;28;20660;-56
2022/12/10 04:53:34;;;;;;;69.80;24.83;;;-1.40;99.90;;;;;;5041069;28;20262;-56
2022/12/10 04:56:01;;;;;;;64.37;23.07;;;-1.20;99.90;;;;;;5041059;28;20310;-54
2022/12/10 04:58:30;;;;;;;65.70;24.73;;;-1.30;99.90;;;;;;5041881;28;20990;-58
2022/12/10 05:01:05;;;;;;;64.07;22.43;;;-1.20;99.90;;;;;;5041360;28;20622;-56
2022/12/10 05:03:32;;;;;;;53.03;21.57;;;-1.20;99.90;;;;;;5040981;28;20212;-57
2022/12/10 05:06:03;;;;;;;70.60;24.47;;;-1.20;99.90;;;;;;5039663;28;20299;-56
2022/12/10 05:08:30;;;;;;;58.87;22.20;;;-1.20;99.90;;;;;;5040206;28;20668;-56
2022/12/10 05:11:02;;;;;;;64.73;23.43;;;-1.30;99.90;;;;;;5041037;28;20751;-56
2022/12/10 05:13:29;;;;;;;53.60;21.30;;;-1.30;99.90;;;;;;5039560;28;20675;-57
2022/12/10 05:15:56;;;;;;;65.47;20.93;;;-1.20;99.90;;;;;;5038540;28;20759;-56
2022/12/10 05:18:23;;;;;;;56.07;21.17;;;-1.20;99.90;;;;;;5037085;28;20309;-56
2022/12/10 05:20:50;;;;;;;60.27;21.27;;;-1.20;99.90;;;;;;5050579;28;20201;-56
2022/12/10 05:23:29;;;;;;;61.50;21.87;;;-1.20;99.90;;;;;;5035899;28;20572;-56
2022/12/10 05:26:23;;;;;;;56.03;23.23;;;-1.10;99.90;;;;;;5038429;28;20485;-56
2022/12/10 05:28:55;;;;;;;58.40;21.33;;;-1.10;99.90;;;;;;5040584;28;20314;-56
2022/12/10 05:31:25;;;;;;;60.80;22.30;;;-1.10;99.90;;;;;;5039079;28;20253;-55
2022/12/10 05:33:53;;;;;;;63.87;24.57;;;-1.10;99.90;;;;;;5041061;28;20215;-56
2022/12/10 05:36:23;;;;;;;69.17;23.10;;;-1.20;99.90;;;;;;5037639;28;20199;-55
2022/12/10 05:38:51;;;;;;;63.37;22.10;;;-1.00;99.90;;;;;;5043379;28;20278;-56
2022/12/10 05:41:20;;;;;;;50.63;20.87;;;-0.90;99.90;;;;;;5040373;28;20200;-57
2022/12/10 05:43:47;;;;;;;61.67;22.30;;;-0.90;99.90;;;;;;5038776;28;20225;-56
2022/12/10 05:46:20;;;;;;;59.83;21.07;;;-0.80;99.90;;;;;;5040979;28;20204;-56
2022/12/10 05:48:47;;;;;;;67.73;21.50;;;-0.70;99.90;;;;;;5053496;28;20204;-56
2022/12/10 05:51:17;;;;;;;69.37;23.60;;;-0.90;99.90;;;;;;5039921;28;20714;-55
2022/12/10 05:53:43;;;;;;;57.67;19.10;;;-0.90;99.90;;;;;;5039633;28;20311;-57
2022/12/10 05:56:14;;;;;;;66.07;20.90;;;-0.90;99.90;;;;;;5038890;28;20223;-56
2022/12/10 05:58:42;;;;;;;65.10;21.67;;;-0.90;99.90;;;;;;5039172;28;20214;-57
2022/12/10 06:01:18;;;;;;;59.80;20.43;;;-0.90;99.90;;;;;;5038963;28;20288;-57
2022/12/10 06:03:45;;;;;;;52.37;19.87;;;-1.00;99.90;;;;;;5036630;28;20207;-56
2022/12/10 06:06:13;;;;;;;56.90;20.53;;;-1.00;99.90;;;;;;5037449;28;20227;-56
2022/12/10 06:08:40;;;;;;;68.87;21.33;;;-0.90;99.90;;;;;;5036762;28;20203;-57
2022/12/10 06:11:10;;;;;;;68.07;20.50;;;-0.90;99.90;;;;;;5038887;28;20323;-56
2022/12/10 06:13:37;;;;;;;74.43;20.70;;;-1.20;99.90;;;;;;5042237;28;20298;-55
2022/12/10 06:16:09;;;;;;;63.00;21.00;;;-1.20;99.90;;;;;;5043424;28;21191;-56
2022/12/10 06:18:37;;;;;;;64.67;22.23;;;-1.20;99.90;;;;;;5038776;28;20239;-56
2022/12/10 06:21:05;;;;;;;61.07;21.03;;;-1.20;99.90;;;;;;5036738;28;20290;-58
2022/12/10 06:23:34;;;;;;;54.53;21.20;;;-1.20;99.90;;;;;;5038556;28;20818;-55
2022/12/10 06:26:09;;;;;;;52.63;20.93;;;-1.10;99.90;;;;;;5037707;28;20290;-56
2022/12/10 06:28:36;;;;;;;69.93;23.53;;;-1.10;99.90;;;;;;5032134;28;20289;-56
2022/12/10 06:31:04;;;;;;;62.00;21.53;;;-1.00;99.90;;;;;;5036135;28;20224;-56
2022/12/10 06:33:31;;;;;;;59.73;20.47;;;-1.00;99.90;;;;;;5021254;28;20301;-55
2022/12/10 06:35:58;;;;;;;71.33;19.73;;;-0.80;99.90;;;;;;5038088;28;20210;-60
2022/12/10 06:38:25;;;;;;;67.43;21.03;;;-1.10;99.90;;;;;;5038346;28;20243;-56
2022/12/10 06:40:52;;;;;;;61.70;21.00;;;-1.20;99.90;;;;;;5037857;28;20711;-57
2022/12/10 06:43:19;;;;;;;69.70;21.20;;;-1.20;99.90;;;;;;5038703;28;20201;-63
2022/12/10 06:45:46;;;;;;;60.60;20.57;;;-1.30;99.90;;;;;;5039244;28;20214;-55
2022/12/10 06:48:13;;;;;;;74.17;21.60;;;-1.20;99.90;;;;;;5036582;28;20208;-56
2022/12/10 06:50:40;;;;;;;64.17;21.87;;;-1.10;99.90;;;;;;5037602;28;20207;-56
2022/12/10 06:53:07;;;;;;;68.03;22.17;;;-0.90;99.90;;;;;;5039537;28;20527;-57
2022/12/10 06:55:37;;;;;;;74.43;22.87;;;-0.90;99.90;;;;;;5038534;28;20245;-56
2022/12/10 06:58:04;;;;;;;69.17;22.57;;;-1.00;99.90;;;;;;5037745;28;20275;-56
2022/12/10 07:00:31;;;;;;;53.43;21.03;;;-1.10;99.90;;;;;;5030195;28;20540;-57
2022/12/10 07:02:58;;;;;;;71.27;21.93;;;-1.10;99.90;;;;;;5037593;28;20203;-57
2022/12/10 07:05:25;;;;;;;65.37;21.13;;;-1.10;99.90;;;;;;5036092;28;20285;-56
2022/12/10 07:07:51;;;;;;;60.53;21.77;;;-1.10;99.90;;;;;;5038198;28;20204;-57
2022/12/10 07:10:18;;;;;;;60.90;20.30;;;-1.10;99.90;;;;;;5033659;28;20237;-57
2022/12/10 07:12:45;;;;;;;67.10;20.93;;;-1.10;99.90;;;;;;5037818;28;20204;-55
2022/12/10 07:15:12;;;;;;;64.20;21.63;;;-1.10;99.90;;;;;;5036350;28;20691;-56
2022/12/10 07:17:39;;;;;;;58.63;20.00;;;-1.00;99.90;;;;;;5037666;28;20307;-55
2022/12/10 07:20:06;;;;;;;63.13;21.67;;;-1.10;99.90;;;;;;5036884;28;20199;-57
2022/12/10 07:22:33;;;;;;;67.73;21.50;;;-0.90;99.90;;;;;;5036128;28;20230;-56
2022/12/10 07:25:01;;;;;;;82.40;19.23;;;-1.00;99.90;;;;;;5038506;28;20204;-57
2022/12/10 07:27:30;;;;;;;78.60;20.87;;;-1.20;99.90;;;;;;5049146;28;20207;-55
2022/12/10 07:29:57;;;;;;;81.40;21.10;;;-1.20;99.90;;;;;;5038023;28;20290;-56
2022/12/10 07:32:26;;;;;;;65.80;20.03;;;-1.30;99.90;;;;;;5036726;28;20204;-57
2022/12/10 07:34:52;;;;;;;58.03;19.10;;;-1.20;99.90;;;;;;5036971;28;20813;-57
2022/12/10 07:37:19;;;;;;;66.23;20.03;;;-1.20;99.90;;;;;;5036006;28;20740;-57
2022/12/10 07:39:46;;;;;;;63.80;20.03;;;-1.20;99.90;;;;;;5070454;28;20250;-56
2022/12/10 07:42:13;;;;;;;64.00;19.83;;;-1.20;99.90;;;;;;5058303;28;20728;-57
2022/12/10 07:44:40;;;;;;;71.17;19.63;;;-1.20;99.90;;;;;;5058157;28;20241;-56
2022/12/10 07:47:13;;;;;;;54.57;18.17;;;-1.20;99.90;;;;;;5057699;28;20199;-56
2022/12/10 07:49:40;;;;;;;59.60;18.27;;;-1.20;99.90;;;;;;5055613;28;20217;-57
2022/12/10 07:52:08;;;;;;;52.63;18.77;;;-1.10;99.90;;;;;;5057391;28;20203;-57
2022/12/10 07:54:35;;;;;;;50.63;18.83;;;-0.90;99.90;;;;;;5046367;28;20216;-58
2022/12/10 07:57:02;;;;;;;57.37;18.30;;;-0.80;99.90;;;;;;5056880;28;20229;-57
2022/12/10 07:59:29;;;;;;;63.17;20.80;;;-0.70;99.90;;;;;;5059953;28;20205;-57
2022/12/10 08:01:56;;;;;;;65.60;19.80;;;-0.60;99.90;;;;;;5057134;28;20203;-56
2022/12/10 08:04:23;;;;;;;53.80;17.97;;;-0.60;99.90;;;;;;5059990;28;22658;-57
2022/12/10 08:06:53;;;;;;;45.37;17.93;;;-0.90;99.90;;;;;;5075617;28;20226;-57
2022/12/10 08:09:20;;;;;;;45.17;15.83;;;-0.90;99.90;;;;;;5059319;28;20200;-56
2022/12/10 08:11:46;;;;;;;49.10;18.10;;;-0.90;99.90;;;;;;5063048;28;20258;-57
2022/12/10 08:14:13;;;;;;;45.17;16.13;;;-0.90;99.90;;;;;;5061022;28;20394;-57
2022/12/10 08:16:40;;;;;;;61.77;18.80;;;-0.70;99.90;;;;;;5058018;28;20202;-59
2022/12/10 08:19:07;;;;;;;46.17;18.13;;;-0.80;99.90;;;;;;5059534;28;20630;-57
2022/12/10 08:21:34;;;;;;;73.73;19.23;;;-0.80;99.90;;;;;;5060999;28;20215;-57
2022/12/10 08:24:01;;;;;;;52.87;18.37;;;-0.80;99.90;;;;;;5062388;28;20594;-57
2022/12/10 08:26:30;;;;;;;44.60;17.50;;;-0.60;99.90;;;;;;5064510;28;20614;-57
2022/12/10 08:28:58;;;;;;;50.90;17.57;;;-0.90;99.90;;;;;;5059348;28;20208;-57
2022/12/10 08:31:26;;;;;;;51.57;18.13;;;-0.80;99.90;;;;;;5060257;28;20192;-57
2022/12/10 08:33:53;;;;;;;46.97;16.93;;;-0.90;99.90;;;;;;5060366;28;20214;-59
2022/12/10 08:36:20;;;;;;;48.33;15.80;;;-0.90;99.90;;;;;;5061021;28;20196;-55
2022/12/10 08:38:47;;;;;;;47.73;15.77;;;-1.10;99.90;;;;;;5057309;28;20596;-56
2022/12/10 08:41:20;;;;;;;46.40;16.77;;;-1.30;99.90;;;;;;5074510;28;20222;-59
2022/12/10 08:43:47;;;;;;;52.77;16.53;;;-1.20;99.90;;;;;;5060801;28;20595;-58
2022/12/10 08:46:15;;;;;;;41.20;15.20;;;-1.10;99.90;;;;;;5060753;28;20204;-58
2022/12/10 08:48:42;;;;;;;55.37;16.50;;;-1.10;99.90;;;;;;5058843;28;20539;-57
2022/12/10 08:51:12;;;;;;;41.70;16.17;;;-1.00;99.90;;;;;;5058925;28;20207;-56
2022/12/10 08:53:39;;;;;;;45.30;15.83;;;-1.10;99.90;;;;;;5061204;28;20223;-56
2022/12/10 08:56:06;;;;;;;44.13;16.10;;;-1.00;99.90;;;;;;5059222;28;20301;-56
2022/12/10 08:58:33;;;;;;;48.17;16.27;;;-1.10;99.90;;;;;;5058436;28;20270;-57
2022/12/10 09:01:06;;;;;;;44.93;14.67;;;-1.00;99.90;;;;;;5061993;28;20732;-55
2022/12/10 09:03:33;;;;;;;45.53;14.97;;;-1.20;99.90;;;;;;5060843;28;20212;-58
2022/12/10 09:06:11;;;;;;;42.60;16.17;;;-1.30;99.90;;;;;;5059490;28;20233;-55
2022/12/10 09:08:38;;;;;;;41.47;16.60;;;-1.20;99.90;;;;;;5060108;28;20201;-57
2022/12/10 09:11:13;;;;;;;43.17;15.03;;;-1.20;99.90;;;;;;5058521;28;20231;-56
2022/12/10 09:13:41;;;;;;;40.77;14.57;;;-1.00;99.90;;;;;;5057715;28;20219;-56
2022/12/10 09:16:09;;;;;;;36.97;14.83;;;-1.20;99.90;;;;;;5058022;28;20196;-56
2022/12/10 09:18:36;;;;;;;45.60;15.80;;;-1.10;99.90;;;;;;5053831;28;20202;-55
2022/12/10 09:21:12;;;;;;;40.27;15.40;;;-1.10;99.90;;;;;;5061790;28;20199;-60
2022/12/10 09:23:40;;;;;;;39.27;15.20;;;-1.00;99.90;;;;;;5062179;28;20192;-54
2022/12/10 09:26:08;;;;;;;44.73;16.47;;;-1.10;99.90;;;;;;5049456;28;20205;-56
2022/12/10 09:28:36;;;;;;;38.65;15.90;;;-1.20;99.90;;;;;;4702825;28;10001396;-54
2022/12/10 09:31:05;;;;;;;37.17;14.43;;;-1.30;99.90;;;;;;5047305;28;20207;-58
2022/12/10 09:33:41;;;;;;;32.43;13.80;;;-1.30;99.90;;;;;;5055053;28;20223;-56
2022/12/10 09:36:09;;;;;;;48.43;15.47;;;-1.20;99.90;;;;;;5057398;28;20565;-57
2022/12/10 09:38:38;;;;;;;37.63;15.37;;;-1.40;99.90;;;;;;5045701;28;20229;-57
2022/12/10 09:41:35;;;;;;;45.63;16.07;;;-1.20;99.90;;;;;;5034024;28;20197;-55
2022/12/10 09:44:25;;;;;;;37.50;15.67;;;-1.00;99.90;;;;;;5034319;28;20217;-57
2022/12/10 09:46:57;;;;;;;40.20;15.23;;;-0.80;99.90;;;;;;5033855;28;20208;-55
2022/12/10 09:49:42;;;;;;;39.23;15.93;;;-0.90;99.90;;;;;;5036922;28;20684;-56
2022/12/10 09:52:15;;;;;;;40.80;16.17;;;-0.80;99.90;;;;;;5048493;28;20701;-55
2022/12/10 09:55:00;;;;;;;44.40;16.00;;;-0.60;99.90;;;;;;5033311;28;20305;-56
2022/12/10 09:57:32;;;;;;;41.03;15.80;;;-0.70;99.90;;;;;;5037950;28;20654;-54
2022/12/10 10:00:35;;;;;;;46.47;15.73;;;-0.80;99.90;;;;;;5035962;28;20206;-56
2022/12/10 10:03:03;;;;;;;35.40;14.80;;;-0.70;99.90;;;;;;5016788;28;20579;-56
2022/12/10 10:05:52;;;;;;;44.73;16.03;;;-0.70;99.90;;;;;;5035385;28;20200;-55
2022/12/10 10:08:33;;;;;;;40.77;15.60;;;-0.60;99.90;;;;;;5036102;28;20703;-56
2022/12/10 10:11:01;;;;;;;44.27;16.00;;;-0.60;99.90;;;;;;5018382;28;20589;-57
2022/12/10 10:13:44;;;;;;;40.23;15.27;;;-0.60;99.90;;;;;;5034862;28;20721;-55
2022/12/10 10:16:20;;;;;;;36.87;15.37;;;-0.90;99.90;;;;;;5032495;28;20736;-57
2022/12/10 10:18:59;;;;;;;33.77;13.40;;;-0.90;99.90;;;;;;5034820;28;20226;-55
2022/12/10 10:21:29;;;;;;;46.93;15.40;;;-0.90;99.90;;;;;;5026851;28;20287;-57
2022/12/10 10:23:56;;;;;;;40.43;15.70;;;-0.90;99.90;;;;;;5022220;28;20247;-56
2022/12/10 10:26:25;;;;;;;34.33;13.80;;;-0.70;99.90;;;;;;5024491;28;20889;-58
2022/12/10 10:29:13;;;;;;;35.17;14.97;;;-0.70;99.90;;;;;;5032960;28;20667;-56
2022/12/10 10:31:42;;;;;;;33.40;13.70;;;-0.70;99.90;;;;;;5032632;28;20635;-56
2022/12/10 10:34:22;;;;;;;34.27;13.33;;;-1.00;99.90;;;;;;5032709;28;20311;-56
2022/12/10 10:37:01;;;;;;;35.80;13.07;;;-1.00;99.90;;;;;;5052243;28;20290;-56
2022/12/10 10:39:31;;;;;;;32.50;13.17;;;-1.00;99.90;;;;;;5037049;28;20255;-56
2022/12/10 10:41:59;;;;;;;38.30;14.63;;;-1.10;99.90;;;;;;5038265;28;20287;-57
2022/12/10 10:44:35;;;;;;;33.03;14.03;;;-1.20;99.90;;;;;;5033751;28;20197;-57
2022/12/10 10:47:22;;;;;;;36.13;15.37;;;-1.10;99.90;;;;;;5032030;28;20290;-58
2022/12/10 10:49:49;;;;;;;40.50;15.27;;;-1.10;99.90;;;;;;5033758;28;20342;-61
2022/12/10 10:52:17;;;;;;;42.40;15.03;;;-0.90;99.90;;;;;;5018434;28;20269;-57
2022/12/10 10:54:45;;;;;;;33.50;14.83;;;-0.70;99.90;;;;;;5035186;28;20310;-59
2022/12/10 10:57:33;;;;;;;37.80;15.43;;;-0.70;99.90;;;;;;5030980;28;20694;-55
2022/12/10 11:00:19;;;;;;;39.00;14.07;;;-0.70;99.90;;;;;;5033558;28;20199;-55
2022/12/10 11:02:46;;;;;;;48.27;15.97;;;-0.70;99.90;;;;;;5031625;28;20622;-55
2022/12/10 11:05:25;;;;;;;36.60;14.57;;;-0.80;99.90;;;;;;5031448;28;20570;-55
2022/12/10 11:08:12;;;;;;;37.30;13.30;;;-0.80;99.90;;;;;;5026255;28;20200;-56
2022/12/10 11:10:51;;;;;;;32.87;14.00;;;-0.60;99.90;;;;;;5030249;28;20256;-55
2022/12/10 11:13:19;;;;;;;30.13;13.07;;;-0.80;99.90;;;;;;5027579;28;20291;-56
2022/12/10 11:15:55;;;;;;;29.37;13.00;;;-0.80;99.90;;;;;;5027298;28;21954;-59
2022/12/10 11:18:24;;;;;;;34.97;14.33;;;-0.90;99.90;;;;;;5032895;28;20692;-56
2022/12/10 11:21:11;;;;;;;36.63;14.17;;;-0.80;99.90;;;;;;5009962;28;20938;-56
2022/12/10 11:23:43;;;;;;;36.17;13.60;;;-0.70;99.90;;;;;;5024026;28;20299;-56
2022/12/10 11:26:35;;;;;;;29.43;13.13;;;-0.70;99.90;;;;;;5025504;28;20502;-56
2022/12/10 11:29:38;;;;;;;29.87;11.47;;;-0.80;99.90;;;;;;5013898;28;20326;-54
2022/12/10 11:32:23;;;;;;;26.90;11.70;;;-0.90;99.90;;;;;;5034114;28;20209;-57
2022/12/10 11:35:16;;;;;;;34.23;12.80;;;-0.70;99.90;;;;;;5051381;28;20299;-60
2022/12/10 11:37:49;;;;;;;38.20;14.07;;;-0.60;99.90;;;;;;5043991;28;20196;-56
2022/12/10 11:40:18;;;;;;;38.47;14.47;;;-0.40;99.90;;;;;;5031610;28;20579;-58
2022/12/10 11:43:04;;;;;;;36.10;14.73;;;-0.40;99.90;;;;;;5035039;28;20644;-55
2022/12/10 11:45:33;;;;;;;31.33;12.40;;;-0.50;99.90;;;;;;5028664;28;20688;-56
2022/12/10 11:48:09;;;;;;;38.23;12.83;;;-0.70;99.90;;;;;;5032811;28;20575;-56
2022/12/10 11:50:51;;;;;;;29.53;13.20;;;-0.80;99.90;;;;;;5035580;28;20361;-56
2022/12/10 11:53:59;;;;;;;28.70;11.43;;;-0.80;99.90;;;;;;5037136;28;20202;-57
2022/12/10 11:56:44;;;;;;;38.83;12.93;;;-0.80;99.90;;;;;;5030992;28;20202;-56
2022/12/10 11:59:38;;;;;;;36.53;14.60;;;-0.70;99.90;;;;;;5030024;28;20209;-56
2022/12/10 12:02:34;;;;;;;34.07;11.87;;;-0.60;99.90;;;;;;5029679;28;20212;-57
2022/12/10 12:05:19;;;;;;;37.63;13.83;;;-0.50;99.90;;;;;;5029365;28;20192;-56
2022/12/10 12:08:03;;;;;;;41.53;14.23;;;-0.60;99.90;;;;;;5029012;28;20886;-57
2022/12/10 12:10:44;;;;;;;42.13;14.87;;;-0.30;99.90;;;;;;5029869;28;20220;-57
2022/12/10 12:13:55;;;;;;;43.83;14.93;;;-0.10;99.90;;;;;;5030095;28;20286;-56
2022/12/10 12:16:43;;;;;;;35.63;12.93;;;-0.40;99.90;;;;;;5027795;28;20204;-57
2022/12/10 12:19:17;;;;;;;35.87;14.43;;;-0.40;99.90;;;;;;5030298;28;20235;-58
2022/12/10 12:21:48;;;;;;;39.00;15.10;;;-0.30;99.90;;;;;;5030595;28;20626;-58
2022/12/10 12:24:25;;;;;;;36.90;14.90;;;-0.30;99.90;;;;;;5015887;28;20831;-57
2022/12/10 12:27:06;;;;;;;33.53;14.57;;;-0.40;99.90;;;;;;5033313;28;20207;-60
2022/12/10 12:29:59;;;;;;;35.93;14.40;;;-0.30;99.90;;;;;;5027511;28;20659;-56
2022/12/10 12:32:50;;;;;;;34.03;12.70;;;-0.40;99.90;;;;;;5029059;28;20202;-55
2022/12/10 12:35:42;;;;;;;29.77;12.30;;;-0.50;99.90;;;;;;5031367;28;20925;-54
2022/12/10 12:38:33;;;;;;;34.07;14.30;;;-0.40;99.90;;;;;;5023836;28;20245;-56
2022/12/10 12:41:40;;;;;;;35.60;13.57;;;-0.30;99.90;;;;;;5020809;28;20204;-54
2022/12/10 12:44:25;;;;;;;33.67;13.30;;;-0.20;99.90;;;;;;5032999;28;20219;-56
2022/12/10 12:46:52;;;;;;;36.50;14.10;;;-0.30;99.90;;;;;;5018241;28;20203;-57
2022/12/10 12:49:28;;;;;;;35.03;13.00;;;-0.20;99.90;;;;;;5017163;28;20219;-56
2022/12/10 12:52:13;;;;;;;35.87;14.40;;;-0.40;99.90;;;;;;5032350;28;20215;-56
2022/12/10 12:54:41;;;;;;;33.90;14.27;;;-0.30;99.90;;;;;;5027336;28;20212;-56
2022/12/10 12:57:35;;;;;;;36.60;13.63;;;-0.20;99.90;;;;;;5027734;28;20205;-57
2022/12/10 13:00:11;;;;;;;43.77;14.77;;;0.00;99.90;;;;;;5031410;28;20215;-58
2022/12/10 13:03:11;;;;;;;34.57;13.93;;;0.10;99.90;;;;;;5034587;28;20208;-57
2022/12/10 13:05:40;;;;;;;34.57;13.43;;;-0.10;99.90;;;;;;5030409;28;20326;-57